createdAt,value
2023-05-04T00:01:01.324Z,956.048584
2023-05-04T00:02:02.797Z,956.0606079
2023-05-04T00:03:04.420Z,956.0172729
2023-05-04T00:04:05.513Z,956.0114136
2023-05-04T00:05:06.052Z,956.0316162
2023-05-04T00:06:07.099Z,955.9963989
2023-05-04T00:07:08.365Z,956.0323486
2023-05-04T00:08:09.864Z,955.9906006
2023-05-04T00:09:11.325Z,956.0222778
2023-05-04T00:10:12.821Z,956.0473633
2023-05-04T00:11:14.392Z,956.0585327
2023-05-04T00:12:14.952Z,956.0245972
2023-05-04T00:13:16.185Z,956.0661011
2023-05-04T00:14:17.078Z,956.055603
2023-05-04T00:15:18.643Z,956.0791626
2023-05-04T00:16:20.099Z,956.0596313
2023-05-04T00:17:21.400Z,956.0338135
2023-05-04T00:18:22.891Z,956.041748
2023-05-04T00:19:24.301Z,956.0324707
2023-05-04T00:20:25.667Z,956.0495605
2023-05-04T00:21:26.175Z,956.071106
2023-05-04T00:22:27.600Z,956.064209
2023-05-04T00:23:29.105Z,956.0596924
2023-05-04T00:25:01.369Z,956.0626831
2023-05-04T00:26:02.635Z,956.0509644
2023-05-04T00:27:03.848Z,956.0352173
2023-05-04T00:28:05.326Z,955.9951782
2023-05-04T00:29:06.368Z,956.0257568
2023-05-04T00:30:07.825Z,956.0029907
2023-05-04T00:31:08.557Z,955.9993896
2023-05-04T00:32:09.678Z,956.0303955
2023-05-04T00:33:10.856Z,956.0245361
2023-05-04T00:34:11.917Z,955.9849854
2023-05-04T00:35:12.282Z,955.9996948
2023-05-04T00:36:13.722Z,956.0101318
2023-05-04T00:37:15.170Z,955.9954834
2023-05-04T00:38:16.341Z,956.0042725
2023-05-04T00:39:17.829Z,955.9893188
2023-05-04T00:40:18.837Z,955.9707031
2023-05-04T00:41:19.901Z,955.9849854
2023-05-04T00:42:20.508Z,955.9514771
2023-05-04T00:43:21.616Z,955.9586182
2023-05-04T00:44:23.203Z,955.9429932
2023-05-04T00:45:24.635Z,955.9615479
2023-05-04T00:46:26.175Z,955.9414063
2023-05-04T00:47:26.873Z,955.9360962
2023-05-04T00:48:28.171Z,955.935791
2023-05-04T00:50:00.329Z,955.9291992
2023-05-04T00:51:01.845Z,955.9324951
2023-05-04T00:52:02.397Z,955.9387207
2023-05-04T00:53:03.844Z,955.9338989
2023-05-04T00:54:05.377Z,955.9263306
2023-05-04T00:55:06.369Z,955.940918
2023-05-04T00:56:07.838Z,955.9423218
2023-05-04T00:57:08.517Z,955.9259644
2023-05-04T00:58:09.616Z,955.9543457
2023-05-04T00:59:11.137Z,955.9216919
2023-05-04T01:00:13.628Z,955.9142456
2023-05-04T01:01:14.193Z,955.9302368
2023-05-04T01:02:15.676Z,955.8966675
2023-05-04T01:03:17.268Z,955.9162598
2023-05-04T01:04:18.360Z,955.9216919
2023-05-04T01:05:18.888Z,955.9262695
2023-05-04T01:06:20.152Z,955.9187622
2023-05-04T01:07:21.700Z,955.9168091
2023-05-04T01:08:23.278Z,955.9703369
2023-05-04T01:09:24.636Z,955.9910889
2023-05-04T01:10:26.141Z,955.9711914
2023-05-04T01:11:27.590Z,955.9880981
2023-05-04T01:12:29.062Z,956.0115356
2023-05-04T01:14:00.683Z,956.0356445
2023-05-04T01:15:02.241Z,956.0046997
2023-05-04T01:16:03.316Z,956.0075684
2023-05-04T01:17:04.472Z,956.0083008
2023-05-04T01:18:05.008Z,955.9978027
2023-05-04T01:19:06.877Z,955.984375
2023-05-04T01:20:08.334Z,956.0170288
2023-05-04T01:21:09.051Z,956.0413818
2023-05-04T01:22:09.634Z,956.0452881
2023-05-04T01:23:10.881Z,956.0176392
2023-05-04T01:24:12.358Z,956.0192871
2023-05-04T01:25:13.873Z,956.0036011
2023-05-04T01:26:15.301Z,956.0215454
2023-05-04T01:27:15.819Z,956.0101318
2023-05-04T01:28:17.821Z,955.9840698
2023-05-04T01:29:19.367Z,956.0254517
2023-05-04T01:30:20.870Z,955.9647827
2023-05-04T01:31:22.361Z,955.9980469
2023-05-04T01:32:23.869Z,955.9871826
2023-05-04T01:33:25.066Z,955.9823608
2023-05-04T01:34:26.385Z,955.9820557
2023-05-04T01:35:27.656Z,956.0119629
2023-05-04T01:36:59.409Z,955.9588013
2023-05-04T01:38:00.638Z,955.9806519
2023-05-04T01:39:02.250Z,955.961731
2023-05-04T01:40:03.896Z,955.9489746
2023-05-04T01:41:05.169Z,955.9707642
2023-05-04T01:42:06.388Z,955.9827881
2023-05-04T01:43:07.863Z,955.9514771
2023-05-04T01:44:09.437Z,955.9798584
2023-05-04T01:45:10.833Z,955.9667358
2023-05-04T01:46:12.378Z,955.9712524
2023-05-04T01:47:13.907Z,955.9832764
2023-05-04T01:48:14.388Z,955.9742432
2023-05-04T01:49:16.317Z,955.9920044
2023-05-04T01:50:17.826Z,955.9829712
2023-05-04T01:51:19.387Z,955.9597778
2023-05-04T01:52:20.818Z,955.9320068
2023-05-04T01:53:21.334Z,955.9346924
2023-05-04T01:54:22.906Z,955.9434204
2023-05-04T01:55:24.335Z,955.9848633
2023-05-04T01:56:24.903Z,955.9961548
2023-05-04T01:57:26.085Z,955.9626465
2023-05-04T01:58:27.340Z,955.9432983
2023-05-04T01:59:58.970Z,956.0003662
2023-05-04T02:01:00.901Z,955.9589844
2023-05-04T02:02:01.726Z,955.9823608
2023-05-04T02:03:03.906Z,955.9716187
2023-05-04T02:04:04.472Z,955.9429932
2023-05-04T02:05:05.667Z,955.9835815
2023-05-04T02:06:06.888Z,955.999939
2023-05-04T02:07:08.360Z,956.0298462
2023-05-04T02:08:08.967Z,955.9891968
2023-05-04T02:09:10.837Z,955.9962769
2023-05-04T02:10:11.317Z,956.0125732
2023-05-04T02:11:12.729Z,955.986145
2023-05-04T02:12:14.355Z,955.9770508
2023-05-04T02:13:15.978Z,955.9356079
2023-05-04T02:14:17.384Z,955.9509277
2023-05-04T02:15:18.798Z,955.9587402
2023-05-04T02:16:20.401Z,955.9815674
2023-05-04T02:17:20.966Z,955.9690552
2023-05-04T02:18:22.209Z,955.9664307
2023-05-04T02:19:23.681Z,955.9534302
2023-05-04T02:20:25.095Z,955.9790649
2023-05-04T02:21:26.749Z,956.0009155
2023-05-04T02:22:27.843Z,956.0097046
2023-05-04T02:24:00.339Z,955.9841919
2023-05-04T02:25:00.838Z,955.9629517
2023-05-04T02:26:02.200Z,955.9880981
2023-05-04T02:27:03.713Z,955.965332
2023-05-04T02:28:04.876Z,955.9545288
2023-05-04T02:29:06.311Z,955.9616699
2023-05-04T02:30:07.042Z,956.0072021
2023-05-04T02:31:08.091Z,955.9915771
2023-05-04T02:32:09.704Z,956.0012207
2023-05-04T02:33:11.251Z,955.9807129
2023-05-04T02:34:12.338Z,955.9976807
2023-05-04T02:35:12.941Z,956.0412598
2023-05-04T02:36:14.043Z,956.0212402
2023-05-04T02:37:15.379Z,956.0456543
2023-05-04T02:38:15.935Z,956.0543823
2023-05-04T02:39:17.870Z,956.0435791
2023-05-04T02:40:19.331Z,956.0562744
2023-05-04T02:41:20.828Z,956.052002
2023-05-04T02:42:22.440Z,956.0595093
2023-05-04T02:43:23.889Z,956.1177368
2023-05-04T02:44:25.365Z,956.0988159
2023-05-04T02:45:25.888Z,956.097168
2023-05-04T02:46:26.875Z,956.0957031
2023-05-04T02:47:28.519Z,956.1257935
2023-05-04T02:49:00.164Z,956.1113281
2023-05-04T02:50:01.444Z,956.1587524
2023-05-04T02:51:02.885Z,956.1782227
2023-05-04T02:52:03.349Z,956.1442261
2023-05-04T02:53:04.685Z,956.15625
2023-05-04T02:54:06.865Z,956.2095337
2023-05-04T02:55:07.447Z,956.1694336
2023-05-04T02:56:07.981Z,956.1732788
2023-05-04T02:57:09.098Z,956.1901855
2023-05-04T02:58:10.438Z,956.1960449
2023-05-04T02:59:11.896Z,956.2022095
2023-05-04T03:00:12.577Z,956.2106323
2023-05-04T03:01:14.110Z,956.1911011
2023-05-04T03:02:15.847Z,956.1804199
2023-05-04T03:03:17.462Z,956.2037354
2023-05-04T03:04:18.901Z,956.2276001
2023-05-04T03:05:20.364Z,956.227478
2023-05-04T03:06:20.890Z,956.2097168
2023-05-04T03:07:22.087Z,956.2232666
2023-05-04T03:08:23.388Z,956.2178345
2023-05-04T03:09:24.916Z,956.2340698
2023-05-04T03:10:26.340Z,956.2454834
2023-05-04T03:11:28.459Z,956.1989136
2023-05-04T03:12:59.832Z,956.2086182
2023-05-04T03:14:00.487Z,956.2199707
2023-05-04T03:15:01.104Z,956.2320557
2023-05-04T03:16:02.401Z,956.2125244
2023-05-04T03:17:03.893Z,956.2281494
2023-05-04T03:18:05.386Z,956.2302856
2023-05-04T03:19:06.446Z,956.2306519
2023-05-04T03:20:08.172Z,956.2132568
2023-05-04T03:21:08.503Z,956.2310791
2023-05-04T03:22:09.613Z,956.2106323
2023-05-04T03:23:10.821Z,956.2307129
2023-05-04T03:24:11.914Z,956.2020264
2023-05-04T03:25:12.553Z,956.211792
2023-05-04T03:26:13.674Z,956.2025757
2023-05-04T03:27:15.098Z,956.2357788
2023-05-04T03:28:16.840Z,956.2383423
2023-05-04T03:29:17.285Z,956.2578125
2023-05-04T03:30:18.882Z,956.2665405
2023-05-04T03:31:20.395Z,956.2877197
2023-05-04T03:32:20.917Z,956.2711182
2023-05-04T03:33:22.049Z,956.2557983
2023-05-04T03:34:23.368Z,956.2410889
2023-05-04T03:35:25.187Z,956.2597046
2023-05-04T03:36:25.773Z,956.2374878
2023-05-04T03:37:26.350Z,956.2527466
2023-05-04T03:38:57.791Z,956.2363892
2023-05-04T03:39:59.110Z,956.2526855
2023-05-04T03:41:00.220Z,956.2179565
2023-05-04T03:42:01.724Z,956.2667236
2023-05-04T03:43:03.199Z,956.2338257
2023-05-04T03:44:04.571Z,956.241272
2023-05-04T03:45:05.898Z,956.2539063
2023-05-04T03:46:06.609Z,956.2321777
2023-05-04T03:47:08.180Z,956.2506104
2023-05-04T03:48:08.818Z,956.2128906
2023-05-04T03:49:10.058Z,956.2449951
2023-05-04T03:50:11.085Z,956.2146606
2023-05-04T03:51:13.682Z,956.2374268
2023-05-04T03:52:14.892Z,956.2770996
2023-05-04T03:53:15.550Z,956.2070923
2023-05-04T03:54:16.579Z,956.2207642
2023-05-04T03:55:17.563Z,956.2246094
2023-05-04T03:56:18.689Z,956.2137451
2023-05-04T03:57:20.131Z,956.2229004
2023-05-04T03:58:21.688Z,956.2143555
2023-05-04T03:59:23.178Z,956.199707
2023-05-04T04:00:24.592Z,956.2263184
2023-05-04T04:01:26.266Z,956.2171631
2023-05-04T04:02:58.994Z,956.244873
2023-05-04T04:03:59.644Z,956.1981812
2023-05-04T04:05:00.586Z,956.1997681
2023-05-04T04:06:01.861Z,956.2156372
2023-05-04T04:07:03.348Z,956.2399902
2023-05-04T04:08:04.876Z,956.2037354
2023-05-04T04:09:06.357Z,956.2320557
2023-05-04T04:10:07.500Z,956.1942139
2023-05-04T04:11:08.870Z,956.2559204
2023-05-04T04:12:10.416Z,956.2386475
2023-05-04T04:13:11.962Z,956.3200073
2023-05-04T04:14:13.589Z,956.3410645
2023-05-04T04:15:14.055Z,956.3068848
2023-05-04T04:16:15.473Z,956.3378296
2023-05-04T04:17:16.912Z,956.3410645
2023-05-04T04:18:17.578Z,956.321167
2023-05-04T04:19:19.312Z,956.3721924
2023-05-04T04:20:20.603Z,956.3201294
2023-05-04T04:21:22.072Z,956.3272095
2023-05-04T04:22:23.340Z,956.338623
2023-05-04T04:23:24.759Z,956.3596802
2023-05-04T04:24:26.669Z,956.3034668
2023-05-04T04:25:58.096Z,956.3297729
2023-05-04T04:26:59.117Z,956.3303223
2023-05-04T04:28:00.460Z,956.3700562
2023-05-04T04:29:01.910Z,956.3856812
2023-05-04T04:30:03.751Z,956.4052124
2023-05-04T04:31:04.868Z,956.3970337
2023-05-04T04:32:05.836Z,956.3944702
2023-05-04T04:33:07.134Z,956.4182739
2023-05-04T04:34:07.754Z,956.3933105
2023-05-04T04:35:09.230Z,956.4003906
2023-05-04T04:36:10.749Z,956.4332886
2023-05-04T04:37:11.831Z,956.4144287
2023-05-04T04:38:12.466Z,956.3986206
2023-05-04T04:39:13.740Z,956.4138794
2023-05-04T04:40:15.261Z,956.4220581
2023-05-04T04:41:16.343Z,956.3845215
2023-05-04T04:42:17.377Z,956.4262695
2023-05-04T04:43:17.877Z,956.4165649
2023-05-04T04:44:19.387Z,956.4106445
2023-05-04T04:45:20.885Z,956.4040527
2023-05-04T04:46:21.459Z,956.4611206
2023-05-04T04:47:22.829Z,956.4295044
2023-05-04T04:48:23.396Z,956.4223633
2023-05-04T04:49:24.771Z,956.4002075
2023-05-04T04:50:25.929Z,956.4073486
2023-05-04T04:51:58.345Z,956.4025269
2023-05-04T04:52:59.388Z,956.4064331
2023-05-04T04:54:00.916Z,956.4083862
2023-05-04T04:55:02.390Z,956.3936768
2023-05-04T04:56:03.066Z,956.3676758
2023-05-04T04:57:04.085Z,956.3585815
2023-05-04T04:58:05.360Z,956.3682861
2023-05-04T04:59:06.943Z,956.3318481
2023-05-04T05:00:07.611Z,956.3894653
2023-05-04T05:01:08.943Z,956.3552856
2023-05-04T05:02:10.335Z,956.3817139
2023-05-04T05:03:11.354Z,956.4093628
2023-05-04T05:04:12.918Z,956.4067993
2023-05-04T05:05:14.475Z,956.421814
2023-05-04T05:06:15.901Z,956.4381104
2023-05-04T05:07:17.366Z,956.4662476
2023-05-04T05:08:18.853Z,956.4412231
2023-05-04T05:09:19.870Z,956.4407959
2023-05-04T05:10:21.329Z,956.4298706
2023-05-04T05:11:22.497Z,956.460144
2023-05-04T05:12:23.862Z,956.4777832
2023-05-04T05:13:24.400Z,956.473999
2023-05-04T05:14:26.045Z,956.456543
2023-05-04T05:15:57.538Z,956.4396973
2023-05-04T05:16:58.872Z,956.4570313
2023-05-04T05:17:59.942Z,956.4749756
2023-05-04T05:19:01.330Z,956.5073242
2023-05-04T05:20:02.578Z,956.4924316
2023-05-04T05:21:02.873Z,956.5413208
2023-05-04T05:22:04.100Z,956.5515137
2023-05-04T05:23:05.089Z,956.5443726
2023-05-04T05:24:06.403Z,956.559082
2023-05-04T05:25:07.347Z,956.5454712
2023-05-04T05:26:07.951Z,956.5818481
2023-05-04T05:27:09.319Z,956.586792
2023-05-04T05:28:10.424Z,956.6251831
2023-05-04T05:29:11.839Z,956.6339111
2023-05-04T05:30:12.372Z,956.6381226
2023-05-04T05:31:13.652Z,956.6560669
2023-05-04T05:32:15.946Z,956.6994019
2023-05-04T05:33:17.947Z,956.6771851
2023-05-04T05:34:19.332Z,956.6740723
2023-05-04T05:35:19.844Z,956.7037354
2023-05-04T05:36:21.455Z,956.6820068
2023-05-04T05:37:23.277Z,956.6609497
2023-05-04T05:38:24.818Z,956.6900024
2023-05-04T05:39:26.341Z,956.7051392
2023-05-04T05:40:57.857Z,956.6730957
2023-05-04T05:41:59.366Z,956.6923218
2023-05-04T05:43:01.020Z,956.6712646
2023-05-04T05:44:01.688Z,956.6587524
2023-05-04T05:45:03.160Z,956.6760864
2023-05-04T05:46:04.375Z,956.6879883
2023-05-04T05:47:04.852Z,956.6860962
2023-05-04T05:48:06.245Z,956.6193848
2023-05-04T05:49:07.721Z,956.6468506
2023-05-04T05:50:08.881Z,956.6403809
2023-05-04T05:51:09.841Z,956.6273193
2023-05-04T05:52:10.311Z,956.6254883
2023-05-04T05:53:11.835Z,956.6196899
2023-05-04T05:54:13.534Z,956.6226807
2023-05-04T05:55:14.701Z,956.6276855
2023-05-04T05:56:15.836Z,956.6384277
2023-05-04T05:57:16.856Z,956.6665649
2023-05-04T05:58:18.425Z,956.6920166
2023-05-04T05:59:19.906Z,956.6881104
2023-05-04T06:00:21.451Z,956.6431274
2023-05-04T06:01:22.305Z,956.6268921
2023-05-04T06:02:23.394Z,956.6262207
2023-05-04T06:03:25.022Z,956.6196899
2023-05-04T06:04:56.990Z,956.6328125
2023-05-04T06:05:58.360Z,956.6109619
2023-05-04T06:07:00.070Z,956.5888062
2023-05-04T06:08:01.862Z,956.6174927
2023-05-04T06:09:02.569Z,956.7042236
2023-05-04T06:10:03.914Z,956.6661987
2023-05-04T06:11:05.387Z,956.6656494
2023-05-04T06:12:06.913Z,956.6871948
2023-05-04T06:13:08.445Z,956.6204834
2023-05-04T06:14:08.924Z,956.6062622
2023-05-04T06:15:10.281Z,956.6173706
2023-05-04T06:16:11.374Z,956.6151733
2023-05-04T06:17:13.479Z,956.5836792
2023-05-04T06:18:13.964Z,956.5654907
2023-05-04T06:19:15.207Z,956.6079712
2023-05-04T06:20:16.821Z,956.5734863
2023-05-04T06:21:18.463Z,956.5814209
2023-05-04T06:22:19.856Z,956.5488892
2023-05-04T06:23:20.836Z,956.5161133
2023-05-04T06:24:22.100Z,956.5187378
2023-05-04T06:25:23.417Z,956.5201416
2023-05-04T06:26:23.970Z,956.5599976
2023-05-04T06:27:56.378Z,956.5373535
2023-05-04T06:28:57.377Z,956.519043
2023-05-04T06:29:58.872Z,956.5267334
2023-05-04T06:31:00.381Z,956.5167236
2023-05-04T06:32:01.060Z,956.5516357
2023-05-04T06:33:02.886Z,956.5276489
2023-05-04T06:34:03.368Z,956.520874
2023-05-04T06:35:04.659Z,956.5117798
2023-05-04T06:36:06.216Z,956.4788818
2023-05-04T06:37:07.391Z,956.4701538
2023-05-04T06:38:09.530Z,956.4921875
2023-05-04T06:39:10.038Z,956.4696655
2023-05-04T06:40:11.420Z,956.4785767
2023-05-04T06:41:12.695Z,956.4974976
2023-05-04T06:42:14.179Z,956.4359131
2023-05-04T06:43:15.801Z,956.4989014
2023-05-04T06:44:17.362Z,956.444458
2023-05-04T06:45:18.403Z,956.4578857
2023-05-04T06:46:20.044Z,956.4970093
2023-05-04T06:47:21.405Z,956.4810791
2023-05-04T06:48:21.997Z,956.4954834
2023-05-04T06:49:23.187Z,956.486084
2023-05-04T06:50:55.337Z,956.5281372
2023-05-04T06:51:56.756Z,956.5106201
2023-05-04T06:52:57.888Z,956.5044556
2023-05-04T06:53:58.397Z,956.5292358
2023-05-04T06:54:59.589Z,956.5567017
2023-05-04T06:56:00.658Z,956.5404053
2023-05-04T06:57:02.294Z,956.5498657
2023-05-04T06:58:03.374Z,956.5421143
2023-05-04T06:59:04.901Z,956.5563965
2023-05-04T07:00:05.773Z,956.5287476
2023-05-04T07:01:06.646Z,956.5545044
2023-05-04T07:02:07.189Z,956.5212402
2023-05-04T07:03:08.700Z,956.4978027
2023-05-04T07:04:09.052Z,956.5222778
2023-05-04T07:05:10.075Z,956.4846802
2023-05-04T07:06:11.416Z,956.4465332
2023-05-04T07:07:12.953Z,956.460022
2023-05-04T07:08:14.494Z,956.4495239
2023-05-04T07:09:15.129Z,956.4459229
2023-05-04T07:10:16.608Z,956.430603
2023-05-04T07:11:17.594Z,956.4227905
2023-05-04T07:12:18.856Z,956.4123535
2023-05-04T07:13:20.464Z,956.3925171
2023-05-04T07:14:21.123Z,956.3666992
2023-05-04T07:15:22.732Z,956.3670044
2023-05-04T07:16:24.385Z,956.3154907
2023-05-04T07:17:56.155Z,956.3069458
2023-05-04T07:18:57.430Z,956.2915649
2023-05-04T07:19:58.937Z,956.286377
2023-05-04T07:21:11.245Z,956.2918701
2023-05-04T07:22:00.660Z,956.2873535
2023-05-04T07:23:02.887Z,956.262207
2023-05-04T07:24:04.437Z,956.2803955
2023-05-04T07:25:05.922Z,956.2285156
2023-05-04T07:26:06.385Z,956.2271729
2023-05-04T07:27:07.650Z,956.2301025
2023-05-04T07:28:08.944Z,956.2365723
2023-05-04T07:29:10.357Z,956.2460327
2023-05-04T07:30:11.360Z,956.232605
2023-05-04T07:31:12.353Z,956.2661743
2023-05-04T07:32:12.854Z,956.2485352
2023-05-04T07:33:13.608Z,956.2090454
2023-05-04T07:34:14.864Z,956.2125244
2023-05-04T07:35:15.354Z,956.1972046
2023-05-04T07:36:16.381Z,956.18927
2023-05-04T07:37:17.342Z,956.168335
2023-05-04T07:38:17.855Z,956.1383057
2023-05-04T07:39:18.871Z,956.1555176
2023-05-04T07:40:20.379Z,956.1356201
2023-05-04T07:41:20.845Z,956.100647
2023-05-04T07:42:21.317Z,956.1384277
2023-05-04T07:43:22.376Z,956.1344604
2023-05-04T07:44:22.861Z,956.1251831
2023-05-04T07:45:54.603Z,956.1188965
2023-05-04T07:46:55.579Z,956.163269
2023-05-04T07:47:56.905Z,956.1776733
2023-05-04T07:48:57.885Z,956.1206055
2023-05-04T07:49:59.366Z,956.1046143
2023-05-04T07:50:59.909Z,956.1048584
2023-05-04T07:52:01.060Z,956.1021729
2023-05-04T07:53:02.067Z,956.0582886
2023-05-04T07:54:03.376Z,956.0901489
2023-05-04T07:55:04.397Z,956.1469727
2023-05-04T07:56:05.873Z,956.1070557
2023-05-04T07:57:06.317Z,956.1448364
2023-05-04T07:58:07.378Z,956.1287231
2023-05-04T07:59:08.375Z,956.2015381
2023-05-04T08:00:08.874Z,956.1871948
2023-05-04T08:01:10.159Z,956.1472168
2023-05-04T08:02:12.169Z,956.1530762
2023-05-04T08:03:12.941Z,956.1598511
2023-05-04T08:04:13.677Z,956.1204834
2023-05-04T08:05:15.227Z,956.1622925
2023-05-04T08:06:16.364Z,956.1553345
2023-05-04T08:07:17.325Z,956.1947632
2023-05-04T08:08:18.362Z,956.2005615
2023-05-04T08:09:19.113Z,956.1707153
2023-05-04T08:10:19.814Z,956.1454468
2023-05-04T08:11:21.234Z,956.1400757
2023-05-04T08:12:21.152Z,956.1330566
2023-05-04T08:13:22.390Z,956.1096802
2023-05-04T08:14:23.091Z,956.0981445
2023-05-04T08:15:55.250Z,956.039978
2023-05-04T08:16:56.374Z,956.060791
2023-05-04T08:17:57.011Z,956.0529785
2023-05-04T08:18:57.621Z,956.03125
2023-05-04T08:19:58.838Z,956.0713501
2023-05-04T08:21:00.571Z,956.0545044
2023-05-04T08:22:01.259Z,956.0112305
2023-05-04T08:23:02.667Z,956.0424805
2023-05-04T08:24:04.182Z,956.0039063
2023-05-04T08:25:05.926Z,955.9969482
2023-05-04T08:26:06.292Z,955.9421997
2023-05-04T08:27:08.743Z,955.9692383
2023-05-04T08:28:09.164Z,955.9187622
2023-05-04T08:29:10.521Z,955.9098511
2023-05-04T08:30:10.910Z,955.871582
2023-05-04T08:31:11.514Z,955.8684082
2023-05-04T08:32:12.640Z,955.8792114
2023-05-04T08:33:14.049Z,955.8908081
2023-05-04T08:34:15.410Z,955.8474731
2023-05-04T08:35:15.881Z,955.8943481
2023-05-04T08:36:17.403Z,955.9043579
2023-05-04T08:37:17.918Z,955.8604126
2023-05-04T08:38:19.394Z,955.9048462
2023-05-04T08:39:20.904Z,955.8565674
2023-05-04T08:40:22.448Z,955.869873
2023-05-04T08:41:23.473Z,955.8869629
2023-05-04T08:42:54.950Z,955.8754883
2023-05-04T08:43:56.138Z,955.9015503
2023-05-04T08:44:57.670Z,955.9154663
2023-05-04T08:45:59.257Z,955.9435425
2023-05-04T08:47:00.411Z,955.9230957
2023-05-04T08:48:01.960Z,955.8929443
2023-05-04T08:49:03.390Z,955.9403687
2023-05-04T08:50:04.911Z,955.9412231
2023-05-04T08:51:05.398Z,955.9389648
2023-05-04T08:52:06.898Z,955.9520264
2023-05-04T08:53:07.559Z,955.9332886
2023-05-04T08:54:08.962Z,955.932373
2023-05-04T08:55:10.418Z,955.9611206
2023-05-04T08:56:10.995Z,955.9381104
2023-05-04T08:57:12.216Z,955.9463501
2023-05-04T08:58:13.876Z,955.953125
2023-05-04T08:59:15.378Z,955.9710693
2023-05-04T09:00:15.974Z,955.9341431
2023-05-04T09:01:17.263Z,955.9040527
2023-05-04T09:02:18.637Z,955.8965454
2023-05-04T09:03:20.010Z,955.9154663
2023-05-04T09:04:21.384Z,955.897522
2023-05-04T09:05:21.857Z,955.9241943
2023-05-04T09:06:22.342Z,955.9188843
2023-05-04T09:07:23.252Z,955.9639282
2023-05-04T09:08:54.618Z,955.9621582
2023-05-04T09:09:55.868Z,955.9467163
2023-05-04T09:10:56.881Z,955.9240723
2023-05-04T09:11:57.875Z,955.9561157
2023-05-04T09:12:58.459Z,955.9003906
2023-05-04T09:13:59.878Z,955.9019775
2023-05-04T09:15:00.861Z,955.9039307
2023-05-04T09:16:01.388Z,955.8831787
2023-05-04T09:17:01.840Z,955.9129028
2023-05-04T09:18:03.161Z,955.8686523
2023-05-04T09:19:04.387Z,955.866272
2023-05-04T09:20:04.913Z,955.8494263
2023-05-04T09:21:07.348Z,955.8493042
2023-05-04T09:22:07.880Z,955.8504639
2023-05-04T09:23:08.917Z,955.8562622
2023-05-04T09:24:09.908Z,955.859375
2023-05-04T09:25:11.391Z,955.8736572
2023-05-04T09:26:11.871Z,955.8637695
2023-05-04T09:27:12.415Z,955.8482666
2023-05-04T09:28:13.872Z,955.8713379
2023-05-04T09:29:15.374Z,955.8640747
2023-05-04T09:30:16.396Z,955.9067383
2023-05-04T09:31:17.987Z,955.8470459
2023-05-04T09:32:18.384Z,955.8626709
2023-05-04T09:33:18.886Z,955.9291992
2023-05-04T09:34:20.580Z,955.9005737
2023-05-04T09:35:31.908Z,955.8867188
2023-05-04T09:36:22.385Z,955.8432617
2023-05-04T09:37:54.132Z,955.8392334
2023-05-04T09:38:55.395Z,955.8067017
2023-05-04T09:39:56.427Z,955.8311768
2023-05-04T09:40:57.387Z,955.786499
2023-05-04T09:41:57.964Z,955.7963867
2023-05-04T09:42:59.190Z,955.7946777
2023-05-04T09:44:01.370Z,955.7424316
2023-05-04T09:45:03.096Z,955.7415771
2023-05-04T09:46:03.931Z,955.7327881
2023-05-04T09:47:04.466Z,955.7215576
2023-05-04T09:48:05.698Z,955.7305298
2023-05-04T09:49:06.915Z,955.7453613
2023-05-04T09:50:08.379Z,955.7518921
2023-05-04T09:51:08.843Z,955.6970215
2023-05-04T09:52:10.345Z,955.6791992
2023-05-04T09:53:11.657Z,955.65625
2023-05-04T09:54:12.882Z,955.65802
2023-05-04T09:55:14.408Z,955.6523438
2023-05-04T09:56:15.365Z,955.6587524
2023-05-04T09:57:16.919Z,955.6484375
2023-05-04T09:58:17.414Z,955.7003174
2023-05-04T09:59:17.970Z,955.65625
2023-05-04T10:00:19.528Z,955.6570435
2023-05-04T10:01:19.912Z,955.628418
2023-05-04T10:02:23.256Z,955.6810913
2023-05-04T10:03:53.910Z,955.6417236
2023-05-04T10:04:55.385Z,955.6425781
2023-05-04T10:05:57.037Z,955.6984253
2023-05-04T10:06:58.414Z,955.7025757
2023-05-04T10:07:59.906Z,955.5593872
2023-05-04T10:09:00.401Z,955.5700073
2023-05-04T10:10:00.929Z,955.5305176
2023-05-04T10:11:02.402Z,955.5592041
2023-05-04T10:12:02.961Z,955.5823364
2023-05-04T10:13:04.215Z,955.5365601
2023-05-04T10:14:05.652Z,955.5119019
2023-05-04T10:15:07.248Z,955.5144043
2023-05-04T10:16:08.465Z,955.5013428
2023-05-04T10:17:08.973Z,955.5145264
2023-05-04T10:18:10.165Z,955.5095215
2023-05-04T10:19:11.429Z,955.4802246
2023-05-04T10:20:12.902Z,955.5131226
2023-05-04T10:21:44.402Z,955.4271851
2023-05-04T10:23:16.217Z,955.4351807
2023-05-04T10:24:17.394Z,955.4215698
2023-05-04T10:25:18.916Z,955.3838501
2023-05-04T10:26:19.442Z,955.3887329
2023-05-04T10:27:20.652Z,955.347168
2023-05-04T10:28:53.414Z,955.347168
2023-05-04T10:29:54.914Z,955.3301392
2023-05-04T10:30:56.474Z,955.3170166
2023-05-04T10:31:58.136Z,955.3481445
2023-05-04T10:32:59.459Z,955.3236084
2023-05-04T10:34:00.425Z,955.3449707
2023-05-04T10:35:01.942Z,955.3778076
2023-05-04T10:36:02.531Z,955.2474976
2023-05-04T10:37:03.119Z,955.2835693
2023-05-04T10:38:03.863Z,955.2490845
2023-05-04T10:39:05.424Z,955.2637329
2023-05-04T10:40:07.951Z,955.234314
2023-05-04T10:41:08.376Z,955.2451782
2023-05-04T10:42:08.976Z,955.2408447
2023-05-04T10:43:10.193Z,955.2393799
2023-05-04T10:44:11.863Z,955.2579956
2023-05-04T10:45:13.511Z,955.2211914
2023-05-04T10:46:14.988Z,955.1853027
2023-05-04T10:47:15.515Z,955.180481
2023-05-04T10:48:16.772Z,955.1796875
2023-05-04T10:49:18.327Z,955.131897
2023-05-04T10:50:19.426Z,955.1843872
2023-05-04T10:51:19.981Z,955.2093506
2023-05-04T10:52:21.416Z,955.2224731
2023-05-04T10:53:53.183Z,955.2004395
2023-05-04T10:54:55.401Z,955.1620483
2023-05-04T10:55:55.910Z,955.1685791
2023-05-04T10:56:57.212Z,955.154541
2023-05-04T10:57:58.412Z,955.1838989
2023-05-04T10:58:59.901Z,955.201355
2023-05-04T11:00:00.374Z,955.1699829
2023-05-04T11:01:01.732Z,955.1660767
2023-05-04T11:02:02.250Z,955.1596069
2023-05-04T11:03:04.622Z,955.1685181
2023-05-04T11:04:04.950Z,955.1890869
2023-05-04T11:05:06.395Z,955.1464233
2023-05-04T11:06:07.437Z,955.2142944
2023-05-04T11:07:09.083Z,955.1609497
2023-05-04T11:08:09.460Z,955.1603394
2023-05-04T11:09:10.701Z,955.1635742
2023-05-04T11:10:12.168Z,955.1176758
2023-05-04T11:11:13.754Z,955.0822754
2023-05-04T11:12:14.898Z,955.1109619
2023-05-04T11:13:15.509Z,955.1257935
2023-05-04T11:14:16.923Z,955.1437378
2023-05-04T11:15:18.395Z,955.0551758
2023-05-04T11:16:19.482Z,955.0993652
2023-05-04T11:17:28.114Z,955.0682983